createdAt,value
2022-12-10T00:03:58.140Z,-1.98
2022-12-10T00:07:59.621Z,-1.91
2022-12-10T00:12:01.067Z,-2.10
2022-12-10T00:16:04.136Z,-2.10
2022-12-10T00:20:06.493Z,-2.11
2022-12-10T00:24:08.418Z,-2.09
2022-12-10T00:28:09.905Z,-2.12
2022-12-10T00:32:11.373Z,-2.14
2022-12-10T00:36:18.963Z,-2.22
2022-12-10T00:40:20.450Z,-2.17
2022-12-10T00:44:22.093Z,-2.29
2022-12-10T00:48:23.896Z,-2.15
2022-12-10T00:52:25.518Z,-2.21
2022-12-10T00:56:33.317Z,-2.21
2022-12-10T01:00:34.773Z,-2.14
2022-12-10T01:04:36.294Z,-2.18
2022-12-10T01:08:38.327Z,-2.36
2022-12-10T01:12:39.757Z,-2.32
2022-12-10T01:16:41.357Z,-2.29
2022-12-10T01:20:42.830Z,-2.29
2022-12-10T01:24:44.354Z,-2.37
2022-12-10T01:28:46.441Z,-2.33
2022-12-10T01:32:47.869Z,-2.28
2022-12-10T01:36:52.422Z,-2.36
2022-12-10T01:40:53.882Z,-2.17
2022-12-10T01:45:00.000Z,-2.25
2022-12-10T01:49:04.928Z,-2.25
2022-12-10T01:53:07.142Z,-2.27
2022-12-10T01:57:10.576Z,-2.35
2022-12-10T02:01:12.035Z,-2.27
2022-12-10T02:05:26.318Z,-2.33
2022-12-10T02:09:45.059Z,-2.36
2022-12-10T02:13:56.788Z,-2.32
2022-12-10T02:18:05.524Z,-2.33
2022-12-10T02:22:08.804Z,-2.28
2022-12-10T02:26:17.654Z,-2.19
2022-12-10T02:30:19.919Z,-2.28
2022-12-10T02:34:24.048Z,-2.24
2022-12-10T02:38:32.942Z,-2.25
2022-12-10T02:42:38.958Z,-2.15
2022-12-10T02:46:42.960Z,-2.23
2022-12-10T02:50:44.460Z,-2.20
2022-12-10T02:54:48.254Z,-2.31
2022-12-10T02:59:07.478Z,-2.22
2022-12-10T03:03:24.149Z,-2.29
2022-12-10T03:07:50.498Z,-2.24
2022-12-10T03:12:03.122Z,-2.25
2022-12-10T03:16:05.850Z,-2.27
2022-12-10T03:20:13.748Z,-2.45
2022-12-10T03:24:17.360Z,-2.46
2022-12-10T03:28:21.022Z,-2.34
2022-12-10T03:32:25.984Z,-2.60
2022-12-10T03:36:29.706Z,-2.59
2022-12-10T03:40:32.582Z,-2.69
2022-12-10T03:44:36.683Z,-2.67
2022-12-10T03:48:38.105Z,-2.58
2022-12-10T03:52:39.593Z,-2.36
2022-12-10T03:56:41.154Z,-2.46
2022-12-10T04:00:42.619Z,-2.44
2022-12-10T04:04:44.211Z,-2.46
2022-12-10T04:08:46.862Z,-2.54
2022-12-10T04:13:08.269Z,-2.66
2022-12-10T04:17:09.951Z,-2.51
2022-12-10T04:21:30.093Z,-2.47
2022-12-10T04:25:49.858Z,-2.47
2022-12-10T04:29:51.603Z,-2.54
2022-12-10T04:33:53.041Z,-2.38
2022-12-10T04:37:54.441Z,-2.41
2022-12-10T04:41:55.896Z,-2.50
2022-12-10T04:45:57.532Z,-2.66
2022-12-10T04:49:59.036Z,-2.45
2022-12-10T04:54:01.030Z,-2.60
2022-12-10T04:58:02.972Z,-2.62
2022-12-10T05:02:05.973Z,-2.68
2022-12-10T05:06:13.234Z,-2.58
2022-12-10T05:10:14.794Z,-2.34
2022-12-10T05:14:16.600Z,-2.26
2022-12-10T05:18:18.030Z,-2.48
2022-12-10T05:22:37.984Z,-2.72
2022-12-10T05:26:39.501Z,-2.55
2022-12-10T05:30:40.987Z,-2.39
2022-12-10T05:34:42.427Z,-2.53
2022-12-10T05:38:44.490Z,-2.48
2022-12-10T05:42:47.013Z,-2.40
2022-12-10T05:46:48.475Z,-2.45
2022-12-10T05:50:49.925Z,-2.32
2022-12-10T05:54:51.357Z,-2.26
2022-12-10T05:58:57.696Z,-2.18
2022-12-10T06:02:59.171Z,-2.15
2022-12-10T06:07:00.615Z,-2.20
2022-12-10T06:11:06.947Z,-2.18
2022-12-10T06:15:08.868Z,-2.23
2022-12-10T06:19:10.361Z,-2.28
2022-12-10T06:23:11.753Z,-2.18
2022-12-10T06:27:13.222Z,-2.21
2022-12-10T06:31:16.279Z,-2.23
2022-12-10T06:35:18.117Z,-2.28
2022-12-10T06:39:19.534Z,-2.26
2022-12-10T06:43:21.017Z,-2.14
2022-12-10T06:47:22.558Z,-2.01
2022-12-10T06:51:24.026Z,-2.15
2022-12-10T06:55:25.464Z,-2.16
2022-12-10T06:59:26.951Z,-2.07
2022-12-10T07:03:28.415Z,-1.97
2022-12-10T07:07:29.939Z,-2.08
2022-12-10T07:11:31.924Z,-1.95
2022-12-10T07:15:33.414Z,-2.04
2022-12-10T07:19:34.897Z,-2.06
2022-12-10T07:23:36.327Z,-2.04
2022-12-10T07:27:38.315Z,-2.01
2022-12-10T07:31:39.914Z,-1.98
2022-12-10T07:35:46.003Z,-1.93
2022-12-10T07:39:48.861Z,-1.94
2022-12-10T07:43:50.927Z,-1.90
2022-12-10T07:47:52.366Z,-1.94
2022-12-10T07:51:53.802Z,-1.99
2022-12-10T07:55:55.612Z,-1.96
2022-12-10T07:59:57.032Z,-1.87
2022-12-10T08:03:58.553Z,-1.88
2022-12-10T08:08:04.083Z,-1.81
2022-12-10T08:12:08.202Z,-1.86
2022-12-10T08:16:14.202Z,-1.99
2022-12-10T08:20:15.702Z,-1.84
2022-12-10T08:24:17.125Z,-1.85
2022-12-10T08:28:18.567Z,-1.86
2022-12-10T08:32:19.996Z,-1.79
2022-12-10T08:36:21.508Z,-1.78
2022-12-10T08:40:22.967Z,-1.71
2022-12-10T08:44:24.378Z,-1.65
2022-12-10T08:48:25.837Z,-1.72
2022-12-10T08:52:30.112Z,-1.84
2022-12-10T08:56:31.890Z,-1.76
2022-12-10T09:00:33.388Z,-1.67
2022-12-10T09:04:34.812Z,-1.92
2022-12-10T09:08:36.766Z,-1.77
2022-12-10T09:12:38.358Z,-1.64
2022-12-10T09:16:40.251Z,-1.69
2022-12-10T09:20:41.720Z,-1.58
2022-12-10T09:24:43.197Z,-1.63
2022-12-10T09:28:46.181Z,-1.69
2022-12-10T09:32:47.591Z,-1.58
2022-12-10T09:36:49.059Z,-1.46
2022-12-10T09:41:49.114Z,-1.57
2022-12-10T09:46:24.903Z,-1.39
2022-12-10T09:50:28.972Z,-1.47
2022-12-10T09:54:59.688Z,-1.41
2022-12-10T09:59:11.752Z,-1.35
2022-12-10T10:03:15.401Z,-1.25
2022-12-10T10:07:29.899Z,-1.19
2022-12-10T10:11:34.161Z,-1.22
2022-12-10T10:15:38.638Z,-1.17
2022-12-10T10:19:42.117Z,-1.14
2022-12-10T10:23:45.904Z,-1.18
2022-12-10T10:27:47.703Z,-1.08
2022-12-10T10:32:14.042Z,-1.10
2022-12-10T10:36:15.556Z,-1.04
2022-12-10T10:40:37.198Z,-0.97
2022-12-10T10:44:39.756Z,-1.04
2022-12-10T10:48:41.256Z,-1.00
2022-12-10T10:52:43.009Z,-1.02
2022-12-10T10:56:44.768Z,-0.94
2022-12-10T11:01:07.007Z,-1.00
2022-12-10T11:05:09.713Z,-0.96
2022-12-10T11:09:27.731Z,-0.96
2022-12-10T11:13:31.721Z,-0.87
2022-12-10T11:17:33.137Z,-0.88
2022-12-10T11:21:35.598Z,-0.84
2022-12-10T11:25:57.449Z,-0.98
2022-12-10T11:30:05.658Z,-1.02
2022-12-10T11:34:30.732Z,-0.91
2022-12-10T11:38:48.224Z,-1.01
2022-12-10T11:43:07.215Z,-0.86
2022-12-10T11:47:30.633Z,-0.78
2022-12-10T11:52:01.403Z,-0.95
2022-12-10T11:56:08.577Z,-0.85
2022-12-10T12:00:28.541Z,-0.78
2022-12-10T12:04:44.841Z,-0.66
2022-12-10T12:09:13.760Z,-0.83
2022-12-10T12:13:42.521Z,-0.91
2022-12-10T12:17:56.689Z,-0.87
2022-12-10T12:22:06.887Z,-1.02
2022-12-10T12:26:14.305Z,-1.00
2022-12-10T12:30:19.546Z,-0.93
2022-12-10T12:34:50.405Z,-0.98
2022-12-10T12:39:00.590Z,-0.89
2022-12-10T12:43:13.245Z,-1.00
2022-12-10T12:47:32.193Z,-1.10
2022-12-10T12:51:42.927Z,-1.08
2022-12-10T12:56:03.155Z,-1.09
2022-12-10T13:00:19.172Z,-1.06
2022-12-10T13:04:21.068Z,-1.12
2022-12-10T13:08:22.520Z,-1.09
2022-12-10T13:12:30.793Z,-1.15
2022-12-10T13:16:47.514Z,-1.15
2022-12-10T13:21:29.638Z,-1.17
2022-12-10T13:25:55.669Z,-1.12
2022-12-10T13:30:01.428Z,-1.14
2022-12-10T13:34:02.791Z,-1.10
2022-12-10T13:38:20.937Z,-1.14
2022-12-10T13:42:48.619Z,-1.24
2022-12-10T13:46:57.590Z,-1.10
2022-12-10T13:51:23.520Z,-1.14
2022-12-10T13:55:47.256Z,-1.11
2022-12-10T14:00:16.381Z,-1.22
2022-12-10T14:04:43.384Z,-1.21
2022-12-10T14:08:55.492Z,-1.24
2022-12-10T14:12:57.438Z,-1.30
2022-12-10T14:17:06.714Z,-1.32
2022-12-10T14:21:08.665Z,-1.42
2022-12-10T14:25:14.765Z,-1.36
2022-12-10T14:29:28.774Z,-1.34
2022-12-10T14:33:32.044Z,-1.36
2022-12-10T14:37:37.092Z,-1.44
2022-12-10T14:41:41.021Z,-1.40
2022-12-10T14:45:51.761Z,-1.48
2022-12-10T14:49:56.174Z,-1.35
2022-12-10T14:53:57.671Z,-1.40
2022-12-10T14:58:02.473Z,-1.57
2022-12-10T15:02:15.275Z,-1.50
2022-12-10T15:06:19.714Z,-1.42
2022-12-10T15:10:33.441Z,-1.42
2022-12-10T15:14:37.302Z,-1.44
2022-12-10T15:18:39.268Z,-1.54
2022-12-10T15:22:40.796Z,-1.40
2022-12-10T15:26:46.694Z,-1.41
2022-12-10T15:30:51.996Z,-1.46
2022-12-10T15:34:59.972Z,-1.54
2022-12-10T15:39:13.653Z,-1.67
2022-12-10T15:43:21.231Z,-1.58
2022-12-10T15:47:27.489Z,-1.50
2022-12-10T15:51:28.944Z,-1.50
2022-12-10T15:55:30.404Z,-1.50
2022-12-10T15:59:31.850Z,-1.53
2022-12-10T16:03:33.737Z,-1.61
2022-12-10T16:07:35.180Z,-1.58
2022-12-10T16:11:36.872Z,-1.50
2022-12-10T16:16:02.071Z,-1.63
2022-12-10T16:20:33.320Z,-1.64
2022-12-10T16:24:34.805Z,-1.57
2022-12-10T16:28:36.264Z,-1.55
2022-12-10T16:32:37.716Z,-1.53
2022-12-10T16:36:39.401Z,-1.58
2022-12-10T16:40:43.010Z,-1.58
2022-12-10T16:44:44.463Z,-1.56
2022-12-10T16:48:45.949Z,-1.38
2022-12-10T16:52:47.565Z,-1.34
2022-12-10T16:56:49.073Z,-1.31
2022-12-10T17:00:53.828Z,-1.43
2022-12-10T17:04:55.637Z,-1.44
2022-12-10T17:08:57.061Z,-1.57
2022-12-10T17:12:58.690Z,-1.55
2022-12-10T17:17:03.729Z,-1.52
2022-12-10T17:21:05.413Z,-1.51
2022-12-10T17:25:07.289Z,-1.51
2022-12-10T17:29:30.985Z,-1.61
2022-12-10T17:33:32.770Z,-1.68
2022-12-10T17:37:34.592Z,-1.58
2022-12-10T17:41:40.204Z,-1.62
2022-12-10T17:45:43.026Z,-1.72
2022-12-10T17:49:45.084Z,-1.58
2022-12-10T17:53:46.974Z,-1.70
2022-12-10T17:57:49.403Z,-1.62
2022-12-10T18:01:51.849Z,-1.65
2022-12-10T18:05:53.979Z,-1.64
2022-12-10T18:09:55.685Z,-1.54
2022-12-10T18:13:57.874Z,-1.53
2022-12-10T18:18:00.933Z,-1.49
2022-12-10T18:22:02.411Z,-1.43
2022-12-10T18:26:12.088Z,-1.43
2022-12-10T18:30:20.277Z,-1.48
2022-12-10T18:34:21.703Z,-1.46
2022-12-10T18:38:23.104Z,-1.50
2022-12-10T18:42:24.619Z,-1.52
2022-12-10T18:46:28.319Z,-1.49
2022-12-10T18:50:30.423Z,-1.55
2022-12-10T18:54:32.457Z,-1.66
2022-12-10T18:58:34.188Z,-1.75
2022-12-10T19:02:35.930Z,-1.60
2022-12-10T19:06:38.500Z,-1.52
2022-12-10T19:10:40.052Z,-1.68
2022-12-10T19:14:41.656Z,-1.61
2022-12-10T19:18:45.369Z,-1.69
2022-12-10T19:22:46.984Z,-1.67
2022-12-10T19:26:48.746Z,-1.58
2022-12-10T19:30:54.505Z,-1.63
2022-12-10T19:34:56.403Z,-1.63
2022-12-10T19:38:58.116Z,-1.48
2022-12-10T19:43:00.355Z,-1.76
2022-12-10T19:47:02.273Z,-1.74
2022-12-10T19:51:03.783Z,-1.54
2022-12-10T19:55:07.963Z,-1.51
2022-12-10T19:59:19.718Z,-1.59
2022-12-10T20:03:21.514Z,-1.77
2022-12-10T20:07:23.259Z,-1.80
2022-12-10T20:11:25.222Z,-2.07
2022-12-10T20:15:26.673Z,-2.19
2022-12-10T20:19:28.203Z,-2.26
2022-12-10T20:23:29.690Z,-2.10
2022-12-10T20:27:31.464Z,-1.91
2022-12-10T20:31:33.505Z,-1.88
2022-12-10T20:35:40.989Z,-2.07
2022-12-10T20:39:49.538Z,-1.97
2022-12-10T20:43:58.552Z,-2.08
2022-12-10T20:48:00.846Z,-1.99
2022-12-10T20:52:02.716Z,-1.94
2022-12-10T20:56:05.008Z,-2.08
2022-12-10T21:00:15.975Z,-2.00
2022-12-10T21:04:17.912Z,-2.10
2022-12-10T21:08:23.292Z,-2.13
2022-12-10T21:12:25.052Z,-2.15
2022-12-10T21:16:26.691Z,-2.07
2022-12-10T21:20:29.346Z,-2.13
2022-12-10T21:24:31.248Z,-2.18
2022-12-10T21:28:32.804Z,-2.29
2022-12-10T21:32:34.488Z,-2.38
2022-12-10T21:36:36.385Z,-2.40
2022-12-10T21:40:40.951Z,-2.47
2022-12-10T21:44:42.456Z,-2.54
2022-12-10T21:48:43.961Z,-2.44
2022-12-10T21:52:45.421Z,-2.46
2022-12-10T21:56:46.998Z,-2.65
2022-12-10T22:00:58.397Z,-2.65
2022-12-10T22:05:00.874Z,-2.61
2022-12-10T22:09:02.329Z,-2.52
2022-12-10T22:13:04.021Z,-2.68
2022-12-10T22:17:05.547Z,-2.69
2022-12-10T22:21:07.081Z,-2.68
2022-12-10T22:25:09.018Z,-2.77
2022-12-10T22:29:14.126Z,-2.93
2022-12-10T22:33:15.646Z,-2.70
2022-12-10T22:37:17.206Z,-2.73
2022-12-10T22:41:18.643Z,-2.71
2022-12-10T22:45:25.479Z,-2.75
2022-12-10T22:49:26.946Z,-2.92
2022-12-10T22:53:37.522Z,-2.87
2022-12-10T22:57:38.978Z,-2.89
2022-12-10T23:01:40.579Z,-3.01
2022-12-10T23:05:42.034Z,-3.06
2022-12-10T23:09:44.279Z,-2.89
2022-12-10T23:13:46.025Z,-2.92
2022-12-10T23:17:47.483Z,-2.88
2022-12-10T23:21:48.941Z,-2.95
2022-12-10T23:25:51.422Z,-2.88
2022-12-10T23:29:53.022Z,-3.10
2022-12-10T23:33:54.465Z,-3.01
2022-12-10T23:37:55.937Z,-3.10
2022-12-10T23:41:57.577Z,-2.87
2022-12-10T23:45:59.703Z,-3.03
2022-12-10T23:50:01.189Z,-3.13
2022-12-10T23:54:03.254Z,-2.99
2022-12-10T23:58:04.645Z,-3.17
